Regan, North Dakota
Current Conditions -  °F | °C
As of 12:52 PM on Saturday 20 Dec 2014 (Local Time) from KBIS Reporting Station
Overcast Overcast  
Wind Chill: 18°   Ceiling: 7000
Heat Index: 24°   Visibility: 9mi
Dew Point: 23°   Wind: 5mph
Humidity: 96%   Direction: 120°ESE
Pressure: 29.87"   Gusts: NA
Location:  47.16°N, 100.53°W
Report Text: KBIS 201852Z 12004KT 9SM OVC070 M04/M05 A2987 RMK AO2 SLP145 T10441050
Loading
Personal Weather Stations






























Interactive Weather Map New forecast layout! Learn more

10-Day Weather Forecast

Advertisements
Track Severe Weather on mobile